Oak Park, Michigan
Current Conditions -  °F | °C
As of 11:15 AM on Wednesday 26 Nov 2014 (Local Time) from KVLL Reporting Station
Overcast Overcast  
Wind Chill: 27°   Ceiling: 2500
Heat Index: 33°   Visibility: 10mi
Dew Point: 22°   Wind: 6mph
Humidity: 65%   Direction: 50°NE
Pressure: 30.17"   Gusts: NA
Location:  42.47°N, 83.18°W
Report Text: KVLL 261615Z AUTO 05005KT 10SM OVC025 01/M05 A3017 RMK AO2 T00051053
Loading
Personal Weather Stations






























Interactive Weather Map New forecast layout! Learn more

10-Day Weather Forecast

Advertisements
Track Severe Weather on mobile